sensor_id;sensor_type;location;lat;lon;timestamp;P1;durP1;ratioP1;P2;durP2;ratioP2
60851;SDS011;48553;50.766;2.900;2023-03-11T00:00:26;6.78;;;1.90;;
60851;SDS011;48553;50.766;2.900;2023-03-11T00:03:28;4.38;;;1.65;;
60851;SDS011;48553;50.766;2.900;2023-03-11T00:06:28;4.60;;;1.60;;
60851;SDS011;48553;50.766;2.900;2023-03-11T00:09:29;5.28;;;1.50;;
60851;SDS011;48553;50.766;2.900;2023-03-11T00:12:29;5.10;;;1.70;;
60851;SDS011;48553;50.766;2.900;2023-03-11T00:15:30;5.32;;;1.67;;
60851;SDS011;48553;50.766;2.900;2023-03-11T00:18:31;4.88;;;1.65;;
60851;SDS011;48553;50.766;2.900;2023-03-11T00:21:31;5.18;;;1.60;;
60851;SDS011;48553;50.766;2.900;2023-03-11T00:24:33;4.47;;;1.73;;
60851;SDS011;48553;50.766;2.900;2023-03-11T00:27:33;6.35;;;1.67;;
60851;SDS011;48553;50.766;2.900;2023-03-11T00:30:36;4.97;;;1.67;;
60851;SDS011;48553;50.766;2.900;2023-03-11T00:33:38;3.97;;;1.60;;
60851;SDS011;48553;50.766;2.900;2023-03-11T00:36:38;6.78;;;2.05;;
60851;SDS011;48553;50.766;2.900;2023-03-11T00:39:39;3.70;;;1.63;;
60851;SDS011;48553;50.766;2.900;2023-03-11T00:42:39;5.10;;;1.63;;
60851;SDS011;48553;50.766;2.900;2023-03-11T00:45:40;6.07;;;1.85;;
60851;SDS011;48553;50.766;2.900;2023-03-11T00:48:41;5.40;;;2.03;;
60851;SDS011;48553;50.766;2.900;2023-03-11T00:51:41;4.80;;;1.88;;
60851;SDS011;48553;50.766;2.900;2023-03-11T00:54:41;5.32;;;1.77;;
60851;SDS011;48553;50.766;2.900;2023-03-11T00:57:42;9.73;;;1.95;;
60851;SDS011;48553;50.766;2.900;2023-03-11T01:00:43;5.53;;;1.83;;
60851;SDS011;48553;50.766;2.900;2023-03-11T01:03:43;6.55;;;1.70;;
60851;SDS011;48553;50.766;2.900;2023-03-11T01:06:44;5.75;;;1.67;;
60851;SDS011;48553;50.766;2.900;2023-03-11T01:09:45;6.80;;;1.75;;
60851;SDS011;48553;50.766;2.900;2023-03-11T01:12:45;6.03;;;1.50;;
60851;SDS011;48553;50.766;2.900;2023-03-11T01:15:46;7.20;;;1.60;;
60851;SDS011;48553;50.766;2.900;2023-03-11T01:18:46;5.78;;;1.90;;
60851;SDS011;48553;50.766;2.900;2023-03-11T01:21:47;4.25;;;1.33;;
60851;SDS011;48553;50.766;2.900;2023-03-11T01:24:47;5.32;;;1.60;;
60851;SDS011;48553;50.766;2.900;2023-03-11T01:27:48;5.15;;;1.52;;
60851;SDS011;48553;50.766;2.900;2023-03-11T01:30:48;3.35;;;1.27;;
60851;SDS011;48553;50.766;2.900;2023-03-11T01:33:49;3.85;;;1.30;;
60851;SDS011;48553;50.766;2.900;2023-03-11T01:36:49;4.63;;;1.38;;
60851;SDS011;48553;50.766;2.900;2023-03-11T01:39:50;5.45;;;1.40;;
60851;SDS011;48553;50.766;2.900;2023-03-11T01:42:50;5.85;;;1.23;;
60851;SDS011;48553;50.766;2.900;2023-03-11T01:48:55;4.05;;;1.15;;
60851;SDS011;48553;50.766;2.900;2023-03-11T01:52:01;4.45;;;1.30;;
60851;SDS011;48553;50.766;2.900;2023-03-11T01:55:06;5.88;;;1.45;;
60851;SDS011;48553;50.766;2.900;2023-03-11T01:58:08;6.07;;;1.55;;
60851;SDS011;48553;50.766;2.900;2023-03-11T02:01:13;4.57;;;1.40;;
60851;SDS011;48553;50.766;2.900;2023-03-11T02:04:14;4.35;;;1.38;;
60851;SDS011;48553;50.766;2.900;2023-03-11T02:07:15;5.75;;;1.75;;
60851;SDS011;48553;50.766;2.900;2023-03-11T02:10:16;4.50;;;1.45;;
60851;SDS011;48553;50.766;2.900;2023-03-11T02:13:17;3.00;;;1.27;;
60851;SDS011;48553;50.766;2.900;2023-03-11T02:16:18;4.10;;;1.38;;
60851;SDS011;48553;50.766;2.900;2023-03-11T02:19:31;6.25;;;1.60;;
60851;SDS011;48553;50.766;2.900;2023-03-11T02:22:40;7.07;;;1.80;;
60851;SDS011;48553;50.766;2.900;2023-03-11T02:25:47;7.97;;;1.80;;
60851;SDS011;48553;50.766;2.900;2023-03-11T02:28:56;5.68;;;1.55;;
60851;SDS011;48553;50.766;2.900;2023-03-11T02:31:58;5.35;;;1.45;;
60851;SDS011;48553;50.766;2.900;2023-03-11T02:35:04;8.27;;;1.65;;
60851;SDS011;48553;50.766;2.900;2023-03-11T02:38:05;3.45;;;1.35;;
60851;SDS011;48553;50.766;2.900;2023-03-11T02:41:06;4.88;;;1.70;;
60851;SDS011;48553;50.766;2.900;2023-03-11T02:44:07;5.78;;;1.52;;
60851;SDS011;48553;50.766;2.900;2023-03-11T02:47:09;5.85;;;1.40;;
60851;SDS011;48553;50.766;2.900;2023-03-11T02:50:11;6.97;;;1.33;;
60851;SDS011;48553;50.766;2.900;2023-03-11T02:53:14;4.13;;;1.20;;
60851;SDS011;48553;50.766;2.900;2023-03-11T02:56:14;6.75;;;1.35;;
60851;SDS011;48553;50.766;2.900;2023-03-11T02:59:15;6.00;;;1.40;;
60851;SDS011;48553;50.766;2.900;2023-03-11T03:02:15;5.30;;;1.38;;
60851;SDS011;48553;50.766;2.900;2023-03-11T03:05:17;5.50;;;1.25;;
60851;SDS011;48553;50.766;2.900;2023-03-11T03:08:21;4.05;;;1.33;;
60851;SDS011;48553;50.766;2.900;2023-03-11T03:11:21;11.07;;;1.70;;
60851;SDS011;48553;50.766;2.900;2023-03-11T03:14:22;5.65;;;2.03;;
60851;SDS011;48553;50.766;2.900;2023-03-11T03:17:23;5.20;;;1.70;;
60851;SDS011;48553;50.766;2.900;2023-03-11T03:20:24;6.18;;;1.63;;
60851;SDS011;48553;50.766;2.900;2023-03-11T03:23:25;4.97;;;1.60;;
60851;SDS011;48553;50.766;2.900;2023-03-11T03:26:26;6.00;;;1.60;;
60851;SDS011;48553;50.766;2.900;2023-03-11T03:29:26;9.07;;;1.80;;
60851;SDS011;48553;50.766;2.900;2023-03-11T03:32:27;3.85;;;1.50;;
60851;SDS011;48553;50.766;2.900;2023-03-11T03:35:28;3.55;;;1.60;;
60851;SDS011;48553;50.766;2.900;2023-03-11T03:38:28;5.07;;;1.65;;
60851;SDS011;48553;50.766;2.900;2023-03-11T03:41:29;8.02;;;1.88;;
60851;SDS011;48553;50.766;2.900;2023-03-11T03:44:29;4.40;;;1.60;;
60851;SDS011;48553;50.766;2.900;2023-03-11T03:47:30;4.57;;;1.50;;
60851;SDS011;48553;50.766;2.900;2023-03-11T03:50:31;3.72;;;1.50;;
60851;SDS011;48553;50.766;2.900;2023-03-11T03:53:32;6.82;;;1.58;;
60851;SDS011;48553;50.766;2.900;2023-03-11T03:56:33;4.90;;;1.45;;
60851;SDS011;48553;50.766;2.900;2023-03-11T03:59:33;4.63;;;1.50;;
60851;SDS011;48553;50.766;2.900;2023-03-11T04:02:34;4.15;;;1.45;;
60851;SDS011;48553;50.766;2.900;2023-03-11T04:05:34;3.15;;;1.23;;
60851;SDS011;48553;50.766;2.900;2023-03-11T04:08:35;4.50;;;1.55;;
60851;SDS011;48553;50.766;2.900;2023-03-11T04:11:37;4.68;;;1.25;;
60851;SDS011;48553;50.766;2.900;2023-03-11T04:14:37;5.22;;;1.65;;
60851;SDS011;48553;50.766;2.900;2023-03-11T04:17:37;5.20;;;1.52;;
60851;SDS011;48553;50.766;2.900;2023-03-11T04:20:38;4.65;;;1.33;;
60851;SDS011;48553;50.766;2.900;2023-03-11T04:23:38;5.72;;;1.40;;
60851;SDS011;48553;50.766;2.900;2023-03-11T04:26:39;3.47;;;1.30;;
60851;SDS011;48553;50.766;2.900;2023-03-11T04:29:39;4.25;;;1.40;;
60851;SDS011;48553;50.766;2.900;2023-03-11T04:32:39;4.22;;;1.65;;
60851;SDS011;48553;50.766;2.900;2023-03-11T04:35:40;3.80;;;1.45;;
60851;SDS011;48553;50.766;2.900;2023-03-11T04:38:41;4.03;;;1.55;;
60851;SDS011;48553;50.766;2.900;2023-03-11T04:41:41;5.18;;;1.60;;
60851;SDS011;48553;50.766;2.900;2023-03-11T04:44:41;4.35;;;1.77;;
60851;SDS011;48553;50.766;2.900;2023-03-11T04:47:42;4.25;;;1.73;;
60851;SDS011;48553;50.766;2.900;2023-03-11T04:50:42;4.70;;;1.58;;
60851;SDS011;48553;50.766;2.900;2023-03-11T04:53:43;3.47;;;1.67;;
60851;SDS011;48553;50.766;2.900;2023-03-11T04:56:43;4.00;;;1.67;;
60851;SDS011;48553;50.766;2.900;2023-03-11T04:59:44;7.25;;;1.70;;
60851;SDS011;48553;50.766;2.900;2023-03-11T05:02:44;4.32;;;1.55;;
60851;SDS011;48553;50.766;2.900;2023-03-11T05:05:45;3.88;;;1.73;;
60851;SDS011;48553;50.766;2.900;2023-03-11T05:08:45;5.50;;;1.70;;
60851;SDS011;48553;50.766;2.900;2023-03-11T05:11:45;5.53;;;1.90;;
60851;SDS011;48553;50.766;2.900;2023-03-11T05:14:46;5.35;;;1.80;;
60851;SDS011;48553;50.766;2.900;2023-03-11T05:17:46;4.60;;;1.90;;
60851;SDS011;48553;50.766;2.900;2023-03-11T05:20:47;4.80;;;1.77;;
60851;SDS011;48553;50.766;2.900;2023-03-11T05:23:47;5.07;;;2.00;;
60851;SDS011;48553;50.766;2.900;2023-03-11T05:26:48;6.00;;;2.00;;
60851;SDS011;48553;50.766;2.900;2023-03-11T05:29:49;4.57;;;1.60;;
60851;SDS011;48553;50.766;2.900;2023-03-11T05:32:49;4.53;;;1.63;;
60851;SDS011;48553;50.766;2.900;2023-03-11T05:35:50;4.88;;;1.55;;
60851;SDS011;48553;50.766;2.900;2023-03-11T05:38:50;3.70;;;1.63;;
60851;SDS011;48553;50.766;2.900;2023-03-11T05:41:52;3.05;;;1.40;;
60851;SDS011;48553;50.766;2.900;2023-03-11T05:44:52;4.70;;;1.92;;
60851;SDS011;48553;50.766;2.900;2023-03-11T05:47:53;5.32;;;1.73;;
60851;SDS011;48553;50.766;2.900;2023-03-11T05:50:53;5.38;;;1.85;;
60851;SDS011;48553;50.766;2.900;2023-03-11T05:53:53;4.88;;;1.60;;
60851;SDS011;48553;50.766;2.900;2023-03-11T05:56:54;3.40;;;1.45;;
60851;SDS011;48553;50.766;2.900;2023-03-11T05:59:55;5.22;;;1.65;;
60851;SDS011;48553;50.766;2.900;2023-03-11T06:02:55;3.40;;;1.88;;
60851;SDS011;48553;50.766;2.900;2023-03-11T06:05:56;4.80;;;1.50;;
60851;SDS011;48553;50.766;2.900;2023-03-11T06:08:56;4.28;;;1.55;;
60851;SDS011;48553;50.766;2.900;2023-03-11T06:11:57;5.50;;;1.70;;
60851;SDS011;48553;50.766;2.900;2023-03-11T06:14:57;4.32;;;1.60;;
60851;SDS011;48553;50.766;2.900;2023-03-11T06:17:58;5.28;;;2.05;;
60851;SDS011;48553;50.766;2.900;2023-03-11T06:21:02;5.60;;;1.83;;
60851;SDS011;48553;50.766;2.900;2023-03-11T06:24:03;8.80;;;2.28;;
60851;SDS011;48553;50.766;2.900;2023-03-11T06:27:04;6.22;;;2.15;;
60851;SDS011;48553;50.766;2.900;2023-03-11T06:30:04;3.92;;;1.90;;
60851;SDS011;48553;50.766;2.900;2023-03-11T06:33:06;7.60;;;2.22;;
60851;SDS011;48553;50.766;2.900;2023-03-11T06:36:06;5.53;;;2.45;;
60851;SDS011;48553;50.766;2.900;2023-03-11T06:39:07;4.90;;;2.47;;
60851;SDS011;48553;50.766;2.900;2023-03-11T06:42:11;9.15;;;2.95;;
60851;SDS011;48553;50.766;2.900;2023-03-11T06:45:12;8.70;;;3.20;;
60851;SDS011;48553;50.766;2.900;2023-03-11T06:48:12;6.55;;;2.88;;
60851;SDS011;48553;50.766;2.900;2023-03-11T06:51:13;4.97;;;2.75;;
60851;SDS011;48553;50.766;2.900;2023-03-11T06:54:13;7.38;;;2.90;;
60851;SDS011;48553;50.766;2.900;2023-03-11T06:57:14;6.22;;;2.72;;
60851;SDS011;48553;50.766;2.900;2023-03-11T07:00:15;5.45;;;2.67;;
60851;SDS011;48553;50.766;2.900;2023-03-11T07:03:16;5.68;;;2.78;;
60851;SDS011;48553;50.766;2.900;2023-03-11T07:06:17;5.03;;;2.47;;
60851;SDS011;48553;50.766;2.900;2023-03-11T07:09:20;5.85;;;2.70;;
60851;SDS011;48553;50.766;2.900;2023-03-11T07:12:22;5.45;;;2.50;;
60851;SDS011;48553;50.766;2.900;2023-03-11T07:15:24;4.25;;;2.10;;
60851;SDS011;48553;50.766;2.900;2023-03-11T07:18:24;5.35;;;2.53;;
60851;SDS011;48553;50.766;2.900;2023-03-11T07:21:25;5.75;;;2.20;;
60851;SDS011;48553;50.766;2.900;2023-03-11T07:24:26;6.65;;;2.42;;
60851;SDS011;48553;50.766;2.900;2023-03-11T07:27:27;7.05;;;2.60;;
60851;SDS011;48553;50.766;2.900;2023-03-11T07:30:28;7.20;;;2.50;;
60851;SDS011;48553;50.766;2.900;2023-03-11T07:33:28;7.63;;;2.20;;
60851;SDS011;48553;50.766;2.900;2023-03-11T07:36:29;5.10;;;2.22;;
60851;SDS011;48553;50.766;2.900;2023-03-11T07:39:30;9.57;;;2.20;;
60851;SDS011;48553;50.766;2.900;2023-03-11T07:42:30;4.93;;;2.13;;
60851;SDS011;48553;50.766;2.900;2023-03-11T07:45:32;8.57;;;2.58;;
60851;SDS011;48553;50.766;2.900;2023-03-11T07:48:33;5.43;;;2.25;;
60851;SDS011;48553;50.766;2.900;2023-03-11T07:51:35;7.03;;;2.45;;
60851;SDS011;48553;50.766;2.900;2023-03-11T07:54:37;9.18;;;2.70;;
60851;SDS011;48553;50.766;2.900;2023-03-11T07:57:37;6.95;;;2.35;;
60851;SDS011;48553;50.766;2.900;2023-03-11T08:00:38;7.25;;;2.63;;
60851;SDS011;48553;50.766;2.900;2023-03-11T08:03:38;6.32;;;2.55;;
60851;SDS011;48553;50.766;2.900;2023-03-11T08:06:40;5.75;;;2.30;;
60851;SDS011;48553;50.766;2.900;2023-03-11T08:09:42;6.47;;;2.47;;
60851;SDS011;48553;50.766;2.900;2023-03-11T08:12:42;5.90;;;2.47;;
60851;SDS011;48553;50.766;2.900;2023-03-11T08:15:42;6.82;;;2.38;;
60851;SDS011;48553;50.766;2.900;2023-03-11T08:18:43;6.10;;;2.40;;
60851;SDS011;48553;50.766;2.900;2023-03-11T08:21:45;8.48;;;2.30;;
60851;SDS011;48553;50.766;2.900;2023-03-11T08:24:49;6.25;;;2.17;;
60851;SDS011;48553;50.766;2.900;2023-03-11T08:27:50;6.20;;;2.03;;
60851;SDS011;48553;50.766;2.900;2023-03-11T08:30:50;6.90;;;2.10;;
60851;SDS011;48553;50.766;2.900;2023-03-11T08:33:52;5.47;;;1.90;;
60851;SDS011;48553;50.766;2.900;2023-03-11T08:36:55;5.57;;;1.90;;
60851;SDS011;48553;50.766;2.900;2023-03-11T08:39:55;8.98;;;1.90;;
60851;SDS011;48553;50.766;2.900;2023-03-11T08:42:56;5.25;;;1.98;;
60851;SDS011;48553;50.766;2.900;2023-03-11T08:45:58;6.50;;;1.80;;
60851;SDS011;48553;50.766;2.900;2023-03-11T08:49:00;7.07;;;2.08;;
60851;SDS011;48553;50.766;2.900;2023-03-11T08:52:02;6.97;;;2.40;;
60851;SDS011;48553;50.766;2.900;2023-03-11T08:55:03;4.05;;;1.90;;
60851;SDS011;48553;50.766;2.900;2023-03-11T08:58:04;5.47;;;1.90;;
60851;SDS011;48553;50.766;2.900;2023-03-11T09:01:05;5.88;;;2.25;;
60851;SDS011;48553;50.766;2.900;2023-03-11T09:04:08;6.03;;;2.08;;
60851;SDS011;48553;50.766;2.900;2023-03-11T09:07:09;3.63;;;1.90;;
60851;SDS011;48553;50.766;2.900;2023-03-11T09:10:12;7.15;;;2.30;;
60851;SDS011;48553;50.766;2.900;2023-03-11T09:13:14;5.53;;;2.17;;
60851;SDS011;48553;50.766;2.900;2023-03-11T09:16:16;7.13;;;2.15;;
60851;SDS011;48553;50.766;2.900;2023-03-11T09:19:19;5.97;;;2.23;;
60851;SDS011;48553;50.766;2.900;2023-03-11T09:22:19;7.43;;;2.38;;
60851;SDS011;48553;50.766;2.900;2023-03-11T09:25:20;6.95;;;2.40;;
60851;SDS011;48553;50.766;2.900;2023-03-11T09:28:20;5.05;;;2.58;;
60851;SDS011;48553;50.766;2.900;2023-03-11T09:31:21;8.50;;;2.55;;
60851;SDS011;48553;50.766;2.900;2023-03-11T09:34:21;7.93;;;2.53;;
60851;SDS011;48553;50.766;2.900;2023-03-11T09:37:22;6.93;;;2.40;;
60851;SDS011;48553;50.766;2.900;2023-03-11T09:40:22;5.68;;;2.15;;
60851;SDS011;48553;50.766;2.900;2023-03-11T09:56:41;4.70;;;1.67;;
60851;SDS011;48553;50.766;2.900;2023-03-11T09:59:42;4.40;;;1.63;;
60851;SDS011;48553;50.766;2.900;2023-03-11T10:02:45;4.60;;;1.67;;
60851;SDS011;48553;50.766;2.900;2023-03-11T10:05:47;5.38;;;1.70;;
60851;SDS011;48553;50.766;2.900;2023-03-11T10:22:39;4.70;;;1.27;;
60851;SDS011;48553;50.766;2.900;2023-03-11T10:25:33;3.63;;;1.58;;
60851;SDS011;48553;50.766;2.900;2023-03-11T10:28:41;4.78;;;1.50;;
60851;SDS011;48553;50.766;2.900;2023-03-11T10:38:18;4.40;;;1.08;;
60851;SDS011;48553;50.766;2.900;2023-03-11T10:41:38;3.97;;;1.10;;
60851;SDS011;48553;50.766;2.900;2023-03-11T10:44:43;3.63;;;1.00;;
60851;SDS011;48553;50.766;2.900;2023-03-11T10:47:43;3.45;;;1.25;;
60851;SDS011;48553;50.766;2.900;2023-03-11T10:54:24;3.17;;;1.13;;
60851;SDS011;48553;50.766;2.900;2023-03-11T10:57:34;3.30;;;1.10;;
60851;SDS011;48553;50.766;2.900;2023-03-11T11:00:35;2.72;;;1.08;;
60851;SDS011;48553;50.766;2.900;2023-03-11T11:03:37;4.15;;;1.20;;
60851;SDS011;48553;50.766;2.900;2023-03-11T11:06:41;4.65;;;0.90;;
60851;SDS011;48553;50.766;2.900;2023-03-11T11:09:41;4.80;;;1.20;;
60851;SDS011;48553;50.766;2.900;2023-03-11T11:12:55;2.75;;;1.20;;
60851;SDS011;48553;50.766;2.900;2023-03-11T11:16:05;2.55;;;1.10;;
60851;SDS011;48553;50.766;2.900;2023-03-11T11:19:19;5.97;;;1.20;;
60851;SDS011;48553;50.766;2.900;2023-03-11T11:22:20;2.67;;;1.17;;
60851;SDS011;48553;50.766;2.900;2023-03-11T11:28:25;4.80;;;1.20;;
60851;SDS011;48553;50.766;2.900;2023-03-11T11:31:26;4.05;;;1.13;;
60851;SDS011;48553;50.766;2.900;2023-03-11T11:34:28;4.65;;;1.15;;
60851;SDS011;48553;50.766;2.900;2023-03-11T11:37:34;3.95;;;1.00;;
60851;SDS011;48553;50.766;2.900;2023-03-11T11:40:37;4.15;;;1.10;;
60851;SDS011;48553;50.766;2.900;2023-03-11T11:43:43;4.13;;;1.10;;
60851;SDS011;48553;50.766;2.900;2023-03-11T11:46:53;3.58;;;1.20;;
60851;SDS011;48553;50.766;2.900;2023-03-11T11:49:58;4.20;;;1.17;;
60851;SDS011;48553;50.766;2.900;2023-03-11T11:56:26;5.20;;;1.52;;
60851;SDS011;48553;50.766;2.900;2023-03-11T11:59:27;4.47;;;1.17;;
60851;SDS011;48553;50.766;2.900;2023-03-11T12:05:56;4.13;;;1.17;;
60851;SDS011;48553;50.766;2.900;2023-03-11T12:12:31;5.43;;;1.30;;
60851;SDS011;48553;50.766;2.900;2023-03-11T12:31:32;2.42;;;0.98;;
60851;SDS011;48553;50.766;2.900;2023-03-11T12:34:37;4.03;;;1.50;;
60851;SDS011;48553;50.766;2.900;2023-03-11T12:37:38;3.78;;;1.25;;
60851;SDS011;48553;50.766;2.900;2023-03-11T12:40:46;2.47;;;1.00;;
60851;SDS011;48553;50.766;2.900;2023-03-11T12:56:53;4.60;;;1.20;;
60851;SDS011;48553;50.766;2.900;2023-03-11T13:03:29;5.28;;;1.27;;
60851;SDS011;48553;50.766;2.900;2023-03-11T13:07:34;5.90;;;2.17;;
60851;SDS011;48553;50.766;2.900;2023-03-11T13:13:41;3.58;;;1.92;;
60851;SDS011;48553;50.766;2.900;2023-03-11T13:16:42;6.55;;;1.67;;
60851;SDS011;48553;50.766;2.900;2023-03-11T13:19:47;6.40;;;1.35;;
60851;SDS011;48553;50.766;2.900;2023-03-11T13:29:26;5.85;;;1.40;;
60851;SDS011;48553;50.766;2.900;2023-03-11T13:42:47;2.45;;;1.17;;
60851;SDS011;48553;50.766;2.900;2023-03-11T13:45:51;4.82;;;1.40;;
60851;SDS011;48553;50.766;2.900;2023-03-11T13:49:10;4.75;;;1.30;;
60851;SDS011;48553;50.766;2.900;2023-03-11T13:52:15;6.22;;;1.55;;
60851;SDS011;48553;50.766;2.900;2023-03-11T13:55:22;6.45;;;1.25;;
60851;SDS011;48553;50.766;2.900;2023-03-11T13:58:28;5.38;;;1.30;;
60851;SDS011;48553;50.766;2.900;2023-03-11T14:01:29;6.32;;;1.40;;
60851;SDS011;48553;50.766;2.900;2023-03-11T14:04:33;4.70;;;1.33;;
60851;SDS011;48553;50.766;2.900;2023-03-11T14:07:35;3.65;;;1.20;;
60851;SDS011;48553;50.766;2.900;2023-03-11T14:10:37;3.65;;;1.25;;
60851;SDS011;48553;50.766;2.900;2023-03-11T14:13:42;5.13;;;1.40;;
60851;SDS011;48553;50.766;2.900;2023-03-11T14:16:48;2.67;;;1.23;;
60851;SDS011;48553;50.766;2.900;2023-03-11T14:20:05;5.53;;;1.40;;
60851;SDS011;48553;50.766;2.900;2023-03-11T14:23:14;7.35;;;1.48;;
60851;SDS011;48553;50.766;2.900;2023-03-11T14:26:21;5.95;;;1.30;;
60851;SDS011;48553;50.766;2.900;2023-03-11T14:32:34;5.63;;;1.58;;
60851;SDS011;48553;50.766;2.900;2023-03-11T14:35:35;4.70;;;1.67;;
60851;SDS011;48553;50.766;2.900;2023-03-11T14:38:40;2.65;;;1.25;;
60851;SDS011;48553;50.766;2.900;2023-03-11T14:41:42;6.05;;;1.50;;
60851;SDS011;48553;50.766;2.900;2023-03-11T14:44:42;4.30;;;1.73;;
60851;SDS011;48553;50.766;2.900;2023-03-11T14:48:05;3.75;;;1.40;;
60851;SDS011;48553;50.766;2.900;2023-03-11T14:51:18;3.85;;;1.70;;
60851;SDS011;48553;50.766;2.900;2023-03-11T14:54:28;5.38;;;1.42;;
60851;SDS011;48553;50.766;2.900;2023-03-11T14:57:37;6.13;;;1.60;;
60851;SDS011;48553;50.766;2.900;2023-03-11T15:00:45;4.25;;;1.58;;
60851;SDS011;48553;50.766;2.900;2023-03-11T15:03:55;6.00;;;1.60;;
60851;SDS011;48553;50.766;2.900;2023-03-11T15:07:00;4.13;;;1.30;;
60851;SDS011;48553;50.766;2.900;2023-03-11T15:10:07;5.03;;;1.38;;
60851;SDS011;48553;50.766;2.900;2023-03-11T15:13:11;4.30;;;1.60;;
60851;SDS011;48553;50.766;2.900;2023-03-11T15:19:44;4.30;;;1.40;;
60851;SDS011;48553;50.766;2.900;2023-03-11T15:22:45;4.60;;;1.38;;
60851;SDS011;48553;50.766;2.900;2023-03-11T15:25:47;4.47;;;1.50;;
60851;SDS011;48553;50.766;2.900;2023-03-11T15:28:53;4.40;;;1.42;;
60851;SDS011;48553;50.766;2.900;2023-03-11T15:35:45;4.80;;;1.70;;
60851;SDS011;48553;50.766;2.900;2023-03-11T15:38:46;4.78;;;1.50;;
60851;SDS011;48553;50.766;2.900;2023-03-11T15:45:01;3.13;;;1.30;;
60851;SDS011;48553;50.766;2.900;2023-03-11T15:48:14;3.78;;;1.60;;
60851;SDS011;48553;50.766;2.900;2023-03-11T15:51:18;5.25;;;2.00;;
60851;SDS011;48553;50.766;2.900;2023-03-11T15:54:19;4.45;;;1.70;;
60851;SDS011;48553;50.766;2.900;2023-03-11T15:57:21;3.55;;;1.52;;
60851;SDS011;48553;50.766;2.900;2023-03-11T16:00:25;4.95;;;1.75;;
60851;SDS011;48553;50.766;2.900;2023-03-11T16:03:25;4.55;;;1.70;;
60851;SDS011;48553;50.766;2.900;2023-03-11T16:06:26;5.53;;;1.80;;
60851;SDS011;48553;50.766;2.900;2023-03-11T16:09:26;3.10;;;1.60;;
60851;SDS011;48553;50.766;2.900;2023-03-11T16:12:26;4.18;;;1.70;;
60851;SDS011;48553;50.766;2.900;2023-03-11T16:15:28;5.00;;;1.70;;
60851;SDS011;48553;50.766;2.900;2023-03-11T16:18:32;3.70;;;1.65;;
60851;SDS011;48553;50.766;2.900;2023-03-11T16:21:36;3.20;;;1.58;;
60851;SDS011;48553;50.766;2.900;2023-03-11T16:24:39;4.05;;;1.65;;
60851;SDS011;48553;50.766;2.900;2023-03-11T16:27:40;5.65;;;1.80;;
60851;SDS011;48553;50.766;2.900;2023-03-11T16:30:40;4.32;;;1.70;;
60851;SDS011;48553;50.766;2.900;2023-03-11T16:33:41;4.57;;;1.50;;
60851;SDS011;48553;50.766;2.900;2023-03-11T16:36:41;4.28;;;1.50;;
60851;SDS011;48553;50.766;2.900;2023-03-11T16:39:42;3.90;;;1.38;;
60851;SDS011;48553;50.766;2.900;2023-03-11T16:42:42;3.60;;;1.30;;
60851;SDS011;48553;50.766;2.900;2023-03-11T16:45:43;3.53;;;1.48;;
60851;SDS011;48553;50.766;2.900;2023-03-11T16:48:43;3.55;;;1.55;;
60851;SDS011;48553;50.766;2.900;2023-03-11T16:51:44;3.65;;;1.50;;
60851;SDS011;48553;50.766;2.900;2023-03-11T16:54:44;5.43;;;1.33;;
60851;SDS011;48553;50.766;2.900;2023-03-11T16:57:45;3.80;;;1.30;;
60851;SDS011;48553;50.766;2.900;2023-03-11T17:00:46;3.92;;;1.38;;
60851;SDS011;48553;50.766;2.900;2023-03-11T17:03:48;4.00;;;1.40;;
60851;SDS011;48553;50.766;2.900;2023-03-11T17:06:49;4.90;;;1.60;;
60851;SDS011;48553;50.766;2.900;2023-03-11T17:09:50;4.20;;;1.55;;
60851;SDS011;48553;50.766;2.900;2023-03-11T17:12:50;4.40;;;1.55;;
60851;SDS011;48553;50.766;2.900;2023-03-11T17:16:02;4.15;;;1.45;;
60851;SDS011;48553;50.766;2.900;2023-03-11T17:19:03;3.45;;;1.45;;
60851;SDS011;48553;50.766;2.900;2023-03-11T17:22:03;4.18;;;1.40;;
60851;SDS011;48553;50.766;2.900;2023-03-11T17:25:04;4.10;;;1.30;;
60851;SDS011;48553;50.766;2.900;2023-03-11T17:28:04;5.45;;;1.40;;
60851;SDS011;48553;50.766;2.900;2023-03-11T17:31:09;3.63;;;1.50;;
60851;SDS011;48553;50.766;2.900;2023-03-11T17:37:10;3.50;;;1.10;;
60851;SDS011;48553;50.766;2.900;2023-03-11T17:40:11;4.53;;;1.38;;
60851;SDS011;48553;50.766;2.900;2023-03-11T17:43:11;3.65;;;1.00;;
60851;SDS011;48553;50.766;2.900;2023-03-11T17:46:13;5.10;;;1.20;;
60851;SDS011;48553;50.766;2.900;2023-03-11T17:49:15;4.00;;;1.30;;
60851;SDS011;48553;50.766;2.900;2023-03-11T17:52:15;3.38;;;1.13;;
60851;SDS011;48553;50.766;2.900;2023-03-11T17:55:16;2.95;;;1.20;;
60851;SDS011;48553;50.766;2.900;2023-03-11T17:58:16;5.05;;;1.35;;
60851;SDS011;48553;50.766;2.900;2023-03-11T18:01:19;2.97;;;1.20;;
60851;SDS011;48553;50.766;2.900;2023-03-11T18:04:21;4.20;;;1.20;;
60851;SDS011;48553;50.766;2.900;2023-03-11T18:07:21;4.20;;;1.25;;
60851;SDS011;48553;50.766;2.900;2023-03-11T18:10:22;2.47;;;1.20;;
60851;SDS011;48553;50.766;2.900;2023-03-11T18:13:23;4.35;;;1.50;;
60851;SDS011;48553;50.766;2.900;2023-03-11T18:16:24;6.30;;;1.60;;
60851;SDS011;48553;50.766;2.900;2023-03-11T18:19:27;5.38;;;2.08;;
60851;SDS011;48553;50.766;2.900;2023-03-11T18:22:27;5.25;;;1.92;;
60851;SDS011;48553;50.766;2.900;2023-03-11T18:25:28;5.65;;;2.33;;
60851;SDS011;48553;50.766;2.900;2023-03-11T18:28:28;3.92;;;2.00;;
60851;SDS011;48553;50.766;2.900;2023-03-11T18:31:29;4.80;;;2.03;;
60851;SDS011;48553;50.766;2.900;2023-03-11T18:34:30;5.40;;;2.20;;
60851;SDS011;48553;50.766;2.900;2023-03-11T18:37:31;5.38;;;2.10;;
60851;SDS011;48553;50.766;2.900;2023-03-11T18:40:32;4.68;;;2.00;;
60851;SDS011;48553;50.766;2.900;2023-03-11T18:43:32;5.47;;;1.98;;
60851;SDS011;48553;50.766;2.900;2023-03-11T18:46:33;4.60;;;1.70;;
60851;SDS011;48553;50.766;2.900;2023-03-11T18:49:34;4.25;;;1.70;;
60851;SDS011;48553;50.766;2.900;2023-03-11T18:52:35;3.20;;;1.60;;
60851;SDS011;48553;50.766;2.900;2023-03-11T18:55:35;8.43;;;2.00;;
60851;SDS011;48553;50.766;2.900;2023-03-11T18:58:35;3.20;;;1.65;;
60851;SDS011;48553;50.766;2.900;2023-03-11T19:01:36;6.35;;;1.90;;
60851;SDS011;48553;50.766;2.900;2023-03-11T19:04:36;4.40;;;2.05;;
60851;SDS011;48553;50.766;2.900;2023-03-11T19:07:37;7.32;;;2.17;;
60851;SDS011;48553;50.766;2.900;2023-03-11T19:10:38;6.35;;;2.08;;
60851;SDS011;48553;50.766;2.900;2023-03-11T19:13:39;5.22;;;2.10;;
60851;SDS011;48553;50.766;2.900;2023-03-11T19:16:39;6.75;;;2.10;;
60851;SDS011;48553;50.766;2.900;2023-03-11T19:19:40;6.03;;;2.33;;
60851;SDS011;48553;50.766;2.900;2023-03-11T19:22:41;4.47;;;1.92;;
60851;SDS011;48553;50.766;2.900;2023-03-11T19:25:41;4.82;;;1.77;;
60851;SDS011;48553;50.766;2.900;2023-03-11T19:28:42;4.45;;;2.00;;
60851;SDS011;48553;50.766;2.900;2023-03-11T19:31:42;7.22;;;2.05;;
60851;SDS011;48553;50.766;2.900;2023-03-11T19:34:42;6.53;;;1.83;;
60851;SDS011;48553;50.766;2.900;2023-03-11T19:37:43;5.55;;;2.05;;
60851;SDS011;48553;50.766;2.900;2023-03-11T19:40:43;4.47;;;2.10;;
60851;SDS011;48553;50.766;2.900;2023-03-11T19:43:44;7.97;;;2.10;;
60851;SDS011;48553;50.766;2.900;2023-03-11T19:46:46;5.38;;;2.10;;
60851;SDS011;48553;50.766;2.900;2023-03-11T19:49:46;4.05;;;2.10;;
60851;SDS011;48553;50.766;2.900;2023-03-11T19:52:46;6.50;;;2.50;;
60851;SDS011;48553;50.766;2.900;2023-03-11T19:55:49;6.35;;;2.60;;
60851;SDS011;48553;50.766;2.900;2023-03-11T19:58:50;7.97;;;2.75;;
60851;SDS011;48553;50.766;2.900;2023-03-11T20:01:51;5.60;;;2.78;;
60851;SDS011;48553;50.766;2.900;2023-03-11T20:04:51;6.82;;;2.75;;
60851;SDS011;48553;50.766;2.900;2023-03-11T20:07:52;5.68;;;2.70;;
60851;SDS011;48553;50.766;2.900;2023-03-11T20:10:52;7.45;;;2.60;;
60851;SDS011;48553;50.766;2.900;2023-03-11T20:13:53;6.75;;;2.63;;
60851;SDS011;48553;50.766;2.900;2023-03-11T20:16:53;6.60;;;2.70;;
60851;SDS011;48553;50.766;2.900;2023-03-11T20:19:54;6.25;;;2.70;;